Qingyuan, China
Current Conditions -  °F | °C
As of 12:30 AM on Saturday 22 Nov 2014 (Local Time) from ZYTX Reporting Station
Clear Clear  
Wind Chill: 21°   Ceiling: Unl
Heat Index: 28°   Visibility: 4mi
Dew Point: 21°   Wind: 7mph
Humidity: 74%   Direction: 40°NE
Pressure: 30.21"   Gusts: NA
Location:  42.1°N, 124.95°E
Report Text: ZYTX 211630Z 04003MPS 7000 NSC M02/M06 Q1023 NOSIG
Loading
Personal Weather Stations






























Interactive Weather Map New forecast layout! Learn more

10-Day Weather Forecast

Advertisements
Track Severe Weather on mobile